Time;durP1;ratioP1;P1;durP2;ratioP2;P2;SDS_P1;SDS_P2;PMS_P1;PMS_P2;Temp;Humidity;BMP_temperature;BMP_pressure;BME280_temperature;BME280_humidity;BME280_pressure;Samples;Min_cycle;Max_cycle;Signal;HPM_P1;HPM_P2
2023/09/03 00:05:12;;;;;;;4.95;2.72;;;;;;;15.71;100.00;101485.81;5229874;23;20062;-96
2023/09/03 00:17:56;;;;;;;5.07;2.97;;;;;;;15.59;100.00;101479.56;5451841;23;20079;-96
2023/09/03 00:27:59;;;;;;;5.15;3.20;;;;;;;15.56;100.00;101492.78;4962737;29;20126;-96
2023/09/03 00:40:39;;;;;;;5.35;3.53;;;;;;;15.57;100.00;101510.03;4995675;23;20095;-95
2023/09/03 00:43:06;;;;;;;5.80;4.20;;;;;;;15.61;100.00;101507.16;5444006;23;20055;-96
2023/09/03 00:45:31;;;;;;;5.38;3.80;;;;;;;15.51;100.00;101510.41;5096979;23;20033;-96
2023/09/03 00:47:56;;;;;;;5.22;3.90;;;;;;;15.45;100.00;101503.81;4975237;28;20067;-96
2023/09/03 00:50:22;;;;;;;5.38;3.47;;;;;;;15.46;100.00;101518.53;4951272;28;20023;-96
2023/09/03 00:55:18;;;;;;;7.50;4.82;;;;;;;15.48;100.00;101526.22;4952181;28;20260;-96
2023/09/03 00:57:44;;;;;;;7.03;4.70;;;;;;;15.40;100.00;101511.91;4959395;29;20004;-96
2023/09/03 01:00:10;;;;;;;4.60;4.20;;;;;;;15.35;100.00;101513.94;4955440;28;20044;-96
2023/09/03 01:02:37;;;;;;;5.15;4.18;;;;;;;15.32;100.00;101521.94;4958802;29;20039;-96
2023/09/03 01:05:04;;;;;;;7.53;4.40;;;;;;;15.32;100.00;101521.13;5211211;23;20910;-95
2023/09/03 01:07:34;;;;;;;8.00;5.22;;;;;;;15.32;100.00;101515.91;5147480;23;20081;-96
2023/09/03 01:10:01;;;;;;;7.47;6.70;;;;;;;15.42;100.00;101511.81;4978841;28;20036;-96
2023/09/03 01:17:50;;;;;;;9.52;5.80;;;;;;;15.48;100.00;101531.41;5253267;23;20042;-96
2023/09/03 01:20:21;;;;;;;9.50;5.97;;;;;;;15.55;100.00;101527.50;4985939;28;20058;-96
2023/09/03 01:22:56;;;;;;;6.93;5.53;;;;;;;15.62;100.00;101539.22;4964168;28;20046;-96
2023/09/03 01:25:40;;;;;;;11.20;7.28;;;;;;;15.54;100.00;101533.66;5012670;23;20030;-96
2023/09/03 01:35:53;;;;;;;10.07;5.88;;;;;;;15.24;100.00;101533.72;5394720;23;20054;-96
2023/09/03 01:38:20;;;;;;;6.28;5.07;;;;;;;15.30;100.00;101539.41;5000605;28;20003;-96
2023/09/03 01:40:50;;;;;;;6.47;4.65;;;;;;;15.23;100.00;101537.25;5000732;28;20011;-96
2023/09/03 06:12:12;;;;;;;8.30;6.20;;;;;;;14.10;100.00;101592.94;5512829;23;20047;-96
2023/09/03 06:19:48;;;;;;;8.10;6.03;;;;;;;14.21;100.00;101599.31;5425807;23;20243;-96
2023/09/03 06:24:52;;;;;;;8.23;6.32;;;;;;;14.37;100.00;101610.53;5028117;23;20039;-96
2023/09/03 06:35:04;;;;;;;9.02;5.85;;;;;;;14.51;100.00;101618.41;5421029;23;20051;-96
2023/09/03 06:37:30;;;;;;;7.95;6.45;;;;;;;14.55;100.00;101619.94;4972612;28;20027;-96
2023/09/03 06:39:55;;;;;;;6.47;5.78;;;;;;;14.64;100.00;101620.38;4975907;28;20115;-96
2023/09/03 06:45:02;;;;;;;7.93;5.90;;;;;;;14.70;100.00;101622.59;6061609;23;20113;-96
2023/09/03 06:47:38;;;;;;;9.70;6.97;;;;;;;14.79;100.00;101622.09;5252606;23;20062;-96
2023/09/03 07:13:39;;;;;;;6.50;5.50;;;;;;;15.67;100.00;101625.66;5669526;23;21044;-96
2023/09/03 07:16:05;;;;;;;8.75;6.68;;;;;;;15.68;100.00;101629.09;4968222;28;20035;-96
2023/09/03 07:18:30;;;;;;;8.98;5.88;;;;;;;15.70;100.00;101625.50;4973293;28;20017;-96
2023/09/03 07:23:32;;;;;;;8.20;6.10;;;;;;;15.77;100.00;101631.19;5957416;23;20166;-96
2023/09/03 07:26:04;;;;;;;8.70;6.07;;;;;;;15.76;100.00;101630.34;4979770;28;20026;-96
2023/09/03 07:33:54;;;;;;;13.38;6.57;;;;;;;16.02;100.00;101643.53;5081106;23;20085;-96
2023/09/03 07:36:22;;;;;;;8.40;6.85;;;;;;;16.15;100.00;101636.66;5178548;23;20935;-96
2023/09/03 07:38:48;;;;;;;9.93;7.57;;;;;;;16.39;100.00;101643.91;4988474;23;20044;-96
2023/09/03 07:48:59;;;;;;;9.00;7.05;;;;;;;18.08;100.00;101654.50;5202645;23;20123;-96
2023/09/03 08:01:42;;;;;;;7.45;6.18;;;;;;;19.91;87.32;101654.19;5356101;23;20042;-96
2023/09/03 08:45:45;;;;;;;4.68;3.88;;;;;;;27.96;47.82;101667.88;5098387;23;20051;-96
2023/09/03 08:53:24;;;;;;;6.40;4.10;;;;;;;28.94;44.63;101661.94;5623096;23;20047;-96
2023/09/03 09:16:24;;;;;;;5.13;3.60;;;;;;;29.14;43.09;101670.28;4957450;28;20039;-96
2023/09/03 09:18:49;;;;;;;4.57;2.85;;;;;;;29.27;44.21;101677.63;5783225;23;21546;-96
2023/09/03 09:21:18;;;;;;;4.97;3.10;;;;;;;28.68;43.73;101680.06;5103762;23;20986;-96
2023/09/03 09:23:44;;;;;;;4.32;2.70;;;;;;;29.07;43.12;101679.13;5206667;23;20043;-93
2023/09/03 09:26:17;;;;;;;3.00;2.40;;;;;;;28.94;44.04;101677.88;4937811;29;20111;-94
2023/09/03 09:29:03;;;;;;;5.10;2.13;;;;;;;29.32;43.46;101680.56;4937344;29;20024;-93
2023/09/03 09:31:34;;;;;;;5.80;3.00;;;;;;;29.62;42.14;101692.03;4932331;29;20062;-96
2023/09/03 09:34:01;;;;;;;4.55;2.60;;;;;;;29.39;43.12;101686.81;4919367;29;20036;-96
2023/09/03 09:36:27;;;;;;;3.33;1.85;;;;;;;29.71;42.84;101692.81;4930979;29;20055;-96
2023/09/03 09:38:53;;;;;;;4.07;1.80;;;;;;;28.94;41.42;101680.53;4915789;29;20542;-95
2023/09/03 09:41:25;;;;;;;2.88;1.25;;;;;;;28.91;41.92;101677.44;4912177;29;20370;-93
2023/09/03 09:43:51;;;;;;;4.13;1.55;;;;;;;29.08;41.80;101670.16;4918834;29;20023;-95
2023/09/03 09:46:27;;;;;;;2.95;1.48;;;;;;;28.71;41.64;101682.41;4918278;29;20084;-94
2023/09/03 09:48:55;;;;;;;2.40;1.45;;;;;;;29.02;42.74;101680.47;4918334;29;20032;-95
2023/09/03 09:51:20;;;;;;;2.95;1.60;;;;;;;28.89;40.82;101680.25;4924952;29;20412;-96
2023/09/03 09:53:54;;;;;;;2.90;1.67;;;;;;;28.57;41.83;101682.16;4915959;29;20020;-95
2023/09/03 09:56:20;;;;;;;1.80;1.35;;;;;;;28.70;43.43;101688.69;4903414;29;20127;-93
2023/09/03 09:58:45;;;;;;;7.22;1.50;;;;;;;28.79;42.09;101687.66;4922840;29;20114;-91
2023/09/03 10:01:11;;;;;;;3.03;1.80;;;;;;;28.58;43.00;101683.81;4920365;29;20039;-93
2023/09/03 10:03:54;;;;;;;2.72;1.55;;;;;;;28.42;43.59;101683.88;4935941;29;20360;-96
2023/09/03 10:06:25;;;;;;;3.55;2.00;;;;;;;28.69;42.05;101682.56;4924409;29;20123;-96
2023/09/03 10:08:52;;;;;;;2.28;1.48;;;;;;;28.70;41.21;101694.00;4937369;29;20081;-93
2023/09/03 10:11:18;;;;;;;3.00;1.70;;;;;;;28.11;42.06;101687.34;4921898;29;20032;-91
2023/09/03 10:13:44;;;;;;;2.28;1.40;;;;;;;28.52;43.23;101684.50;4917894;29;20051;-88
2023/09/03 10:16:10;;;;;;;6.05;1.48;;;;;;;27.85;43.85;101684.16;4915010;29;20164;-93
2023/09/03 10:18:43;;;;;;;2.95;1.60;;;;;;;27.59;44.58;101682.56;4930312;29;20119;-93
2023/09/03 10:21:10;;;;;;;5.90;1.73;;;;;;;27.29;44.44;101678.81;4897859;29;20028;-92
2023/09/03 10:23:50;;;;;;;2.53;1.40;;;;;;;27.18;44.68;101682.59;4909305;29;20188;-90
2023/09/03 10:26:25;;;;;;;4.05;1.48;;;;;;;27.32;44.42;101679.28;4920910;29;20032;-95
2023/09/03 10:28:55;;;;;;;3.17;1.80;;;;;;;27.36;44.28;101686.91;4923380;29;20037;-96
2023/09/03 10:31:23;;;;;;;2.53;1.55;;;;;;;27.08;44.05;101676.66;4917927;29;20032;-92
2023/09/03 10:33:49;;;;;;;3.67;1.83;;;;;;;27.02;44.60;101675.50;4920373;29;20039;-95
2023/09/03 10:36:16;;;;;;;3.17;1.50;;;;;;;27.54;44.51;101676.94;4922950;29;20024;-93
2023/09/03 10:38:41;;;;;;;9.13;4.85;;;;;;;27.74;44.40;101667.56;4924133;29;20032;-96
2023/09/03 10:41:17;;;;;;;4.57;1.85;;;;;;;27.56;43.21;101671.47;4925990;29;20068;-95
2023/09/03 10:43:42;;;;;;;3.70;1.48;;;;;;;28.00;43.77;101684.28;4924217;29;20020;-94
2023/09/03 10:46:09;;;;;;;2.42;1.42;;;;;;;27.91;44.10;101680.81;4939238;29;20091;-96
2023/09/03 10:48:35;;;;;;;3.92;1.88;;;;;;;28.38;42.51;101677.25;4930360;29;20033;-93
2023/09/03 10:51:01;;;;;;;3.13;1.75;;;;;;;28.26;42.97;101682.13;4970125;23;20071;-92
2023/09/03 10:53:40;;;;;;;5.63;1.77;;;;;;;28.49;43.09;101689.38;4919949;29;20087;-93
2023/09/03 10:56:08;;;;;;;9.35;1.70;;;;;;;28.33;42.52;101679.63;4928587;29;20042;-92
2023/09/03 10:58:33;;;;;;;2.08;1.35;;;;;;;28.26;42.45;101674.16;4934705;29;20027;-90
2023/09/03 11:01:19;;;;;;;5.63;1.75;;;;;;;28.46;41.66;101679.06;4934806;29;20052;-92
2023/09/03 11:03:48;;;;;;;2.10;1.38;;;;;;;28.41;42.44;101676.94;4916806;29;20071;-94
2023/09/03 11:06:16;;;;;;;2.22;1.40;;;;;;;28.79;42.28;101679.69;4931660;29;20027;-85
2023/09/03 11:08:42;;;;;;;3.40;1.88;;;;;;;28.54;42.20;101677.19;4935573;29;20534;-86
2023/09/03 11:11:10;;;;;;;3.85;1.60;;;;;;;29.09;42.02;101677.13;4935691;29;20167;-85
2023/09/03 11:13:35;;;;;;;2.22;1.23;;;;;;;29.03;39.48;101681.31;4933253;29;20039;-85
2023/09/03 11:16:01;;;;;;;2.40;1.00;;;;;;;28.96;41.80;101681.19;4933692;29;20032;-85
2023/09/03 11:18:27;;;;;;;3.10;1.33;;;;;;;28.67;41.57;101686.41;4934104;29;20024;-87
2023/09/03 11:20:54;;;;;;;2.92;1.50;;;;;;;28.80;40.73;101681.34;4933137;29;20095;-86
2023/09/03 11:23:20;;;;;;;2.33;1.08;;;;;;;28.81;41.33;101682.97;4930221;29;20463;-86
2023/09/03 11:25:46;;;;;;;1.73;1.10;;;;;;;29.30;40.90;101687.06;4933896;29;20031;-86
2023/09/03 11:28:12;;;;;;;3.05;1.63;;;;;;;28.95;40.02;101687.53;4933629;29;20032;-86
2023/09/03 11:30:46;;;;;;;0.95;0.80;;;;;;;28.99;38.96;101674.69;4931972;29;20019;-85
2023/09/03 11:33:25;;;;;;;3.38;1.33;;;;;;;29.41;38.93;101674.16;4932846;29;20031;-84
2023/09/03 11:35:53;;;;;;;4.05;1.40;;;;;;;29.59;38.78;101681.78;4933786;28;20042;-85
2023/09/03 11:38:18;;;;;;;1.40;0.90;;;;;;;29.85;39.35;101673.34;4933450;28;20024;-84
2023/09/03 11:40:44;;;;;;;4.85;1.08;;;;;;;29.63;37.24;101679.59;4933059;29;20032;-82
2023/09/03 11:43:10;;;;;;;1.73;1.10;;;;;;;29.95;37.82;101675.72;4933374;29;20181;-84
2023/09/03 11:45:36;;;;;;;2.83;1.30;;;;;;;29.49;38.26;101667.09;4932762;29;20349;-84
2023/09/03 11:48:08;;;;;;;2.33;1.33;;;;;;;29.52;38.56;101675.53;4931638;29;20042;-85
2023/09/03 11:50:34;;;;;;;1.50;1.20;;;;;;;29.88;38.96;101668.69;4932698;29;20047;-86
2023/09/03 11:53:00;;;;;;;3.03;2.00;;;;;;;29.79;37.63;101670.59;4932801;29;20624;-83
2023/09/03 11:55:37;;;;;;;2.60;1.20;;;;;;;29.88;40.02;101668.69;4933265;29;20118;-85
2023/09/03 11:58:06;;;;;;;1.98;1.10;;;;;;;30.13;38.97;101661.19;4933533;29;20031;-90
2023/09/03 12:00:32;;;;;;;1.90;1.23;;;;;;;30.45;37.86;101655.41;4932968;29;20086;-84
2023/09/03 12:02:59;;;;;;;2.10;1.05;;;;;;;29.24;37.03;101667.38;4932698;29;20032;-85
2023/09/03 12:05:26;;;;;;;1.42;1.02;;;;;;;29.35;37.33;101669.56;4933037;29;20023;-84
2023/09/03 12:07:52;;;;;;;1.88;1.10;;;;;;;29.89;38.10;101665.00;4931983;28;20614;-84
2023/09/03 12:10:21;;;;;;;2.33;1.13;;;;;;;29.73;38.87;101663.38;4934644;29;20115;-83
2023/09/03 12:12:46;;;;;;;3.28;1.90;;;;;;;30.24;39.25;101655.38;4932343;29;20034;-84
2023/09/03 12:15:22;;;;;;;3.63;1.60;;;;;;;30.29;37.34;101667.13;4933123;29;20047;-83
2023/09/03 12:17:49;;;;;;;1.70;0.90;;;;;;;29.90;37.53;101671.94;4933263;28;20160;-84
2023/09/03 12:20:37;;;;;;;1.95;1.33;;;;;;;29.48;38.09;101673.41;4932149;29;20049;-84
2023/09/03 12:23:16;;;;;;;2.45;1.40;;;;;;;29.41;38.44;101668.84;4924347;29;20032;-84
2023/09/03 12:25:42;;;;;;;2.78;1.27;;;;;;;29.61;37.74;101670.97;4930833;29;20035;-84
2023/09/03 12:28:09;;;;;;;6.72;1.27;;;;;;;29.80;37.72;101658.94;4932681;29;20426;-84
2023/09/03 12:30:58;;;;;;;2.53;1.08;;;;;;;30.21;37.20;101653.88;4931479;29;20024;-83
2023/09/03 12:33:44;;;;;;;2.58;1.55;;;;;;;28.86;38.54;101654.03;4931080;29;20480;-84
2023/09/03 12:36:23;;;;;;;1.60;1.15;;;;;;;29.50;38.04;101660.75;4932269;29;20028;-83
2023/09/03 12:38:48;;;;;;;2.47;1.02;;;;;;;29.33;39.34;101660.94;4932578;29;20028;-84
2023/09/03 12:41:14;;;;;;;3.00;1.20;;;;;;;29.60;37.55;101658.66;4932716;29;20028;-84
2023/09/03 12:43:41;;;;;;;1.77;1.30;;;;;;;29.88;36.98;101660.69;4932018;29;20035;-84
2023/09/03 12:46:07;;;;;;;3.53;1.33;;;;;;;30.18;35.79;101653.44;4932737;29;20530;-84
2023/09/03 12:48:32;;;;;;;2.00;1.02;;;;;;;30.22;37.59;101647.56;4932347;29;20115;-84
2023/09/03 12:50:58;;;;;;;1.85;1.17;;;;;;;30.20;36.65;101644.25;4931933;29;20110;-84
2023/09/03 12:53:23;;;;;;;1.60;1.00;;;;;;;30.14;35.42;101654.84;4932992;29;20034;-84
2023/09/03 12:55:48;;;;;;;2.72;1.60;;;;;;;29.56;38.07;101646.75;4936083;29;20050;-81
2023/09/03 12:58:14;;;;;;;2.47;1.08;;;;;;;29.53;38.08;101653.25;4933882;29;20055;-84
2023/09/03 13:00:39;;;;;;;1.55;1.05;;;;;;;29.75;38.41;101640.88;4932571;29;20032;-85
2023/09/03 13:03:04;;;;;;;2.97;1.05;;;;;;;29.82;39.35;101644.47;4931254;29;20028;-84
2023/09/03 13:05:30;;;;;;;1.80;1.08;;;;;;;30.21;37.42;101637.91;4932495;29;20390;-85
2023/09/03 13:07:55;;;;;;;1.70;1.10;;;;;;;30.48;38.22;101638.22;4931635;29;20027;-85
2023/09/03 13:10:20;;;;;;;2.90;1.20;;;;;;;30.89;36.75;101641.06;4932335;29;20039;-85
2023/09/03 13:12:46;;;;;;;2.60;0.90;;;;;;;30.79;37.95;101645.88;4932049;29;20028;-82
2023/09/03 13:15:12;;;;;;;2.53;1.48;;;;;;;30.38;37.36;101643.03;4931940;29;20473;-82
2023/09/03 13:17:37;;;;;;;2.22;1.33;;;;;;;30.35;39.87;101638.09;4932128;29;20042;-83
2023/09/03 13:20:03;;;;;;;3.38;1.20;;;;;;;30.25;37.26;101644.53;4932667;29;20027;-82
2023/09/03 13:22:29;;;;;;;1.85;1.50;;;;;;;29.98;38.29;101638.06;4932090;29;20028;-83
2023/09/03 13:24:54;;;;;;;2.22;1.52;;;;;;;30.11;37.88;101621.41;4932282;29;20026;-82
2023/09/03 13:27:19;;;;;;;3.05;1.50;;;;;;;29.86;38.19;101624.41;4933040;29;20031;-82
2023/09/03 13:29:45;;;;;;;4.25;1.63;;;;;;;29.55;39.48;101615.81;4934060;29;20039;-82
2023/09/03 13:32:10;;;;;;;1.85;1.30;;;;;;;29.11;39.29;101614.78;4935621;29;20075;-83
2023/09/03 13:34:36;;;;;;;1.23;0.93;;;;;;;28.97;41.10;101612.91;4933518;29;20036;-82
2023/09/03 13:37:03;;;;;;;3.88;1.45;;;;;;;28.25;42.86;101611.47;4932972;29;20398;-84
2023/09/03 13:39:28;;;;;;;2.50;1.17;;;;;;;28.77;41.70;101607.28;4934893;29;20035;-83
2023/09/03 13:41:53;;;;;;;2.75;1.05;;;;;;;29.12;40.55;101612.97;4932419;29;20035;-84
2023/09/03 13:44:19;;;;;;;1.67;1.23;;;;;;;28.46;39.96;101616.19;4921213;29;20036;-83
2023/09/03 13:46:44;;;;;;;2.22;1.33;;;;;;;28.66;39.79;101621.00;4934438;29;20044;-83
2023/09/03 13:49:10;;;;;;;3.35;1.83;;;;;;;28.61;40.43;101612.75;4934088;29;20042;-83
2023/09/03 13:51:36;;;;;;;2.53;1.23;;;;;;;28.47;42.89;101609.84;4933107;29;20050;-83
2023/09/03 13:54:03;;;;;;;1.50;1.08;;;;;;;28.14;44.34;101602.09;4935274;29;20090;-84
2023/09/03 13:56:28;;;;;;;1.95;1.52;;;;;;;28.13;43.29;101600.41;4934849;29;20043;-84
2023/09/03 13:58:53;;;;;;;2.65;1.40;;;;;;;28.33;41.51;101597.31;4932835;29;20031;-84
2023/09/03 14:01:19;;;;;;;2.08;1.30;;;;;;;28.42;42.56;101592.78;4933574;29;20039;-83
2023/09/03 14:03:44;;;;;;;1.85;1.30;;;;;;;28.18;42.64;101598.06;4932780;29;20052;-83
2023/09/03 14:06:09;;;;;;;2.15;1.10;;;;;;;28.31;42.54;101607.28;4934629;29;20072;-83
2023/09/03 14:08:35;;;;;;;1.92;1.02;;;;;;;27.94;42.87;101599.03;4934749;29;20469;-84
2023/09/03 14:11:01;;;;;;;1.40;0.93;;;;;;;27.83;42.60;101593.31;4934077;29;20062;-83
2023/09/03 14:13:27;;;;;;;1.02;0.90;;;;;;;27.54;42.99;101600.84;4934908;29;20114;-83
2023/09/03 14:15:53;;;;;;;2.22;1.50;;;;;;;27.59;42.75;101589.72;4934502;29;20036;-83
2023/09/03 14:18:18;;;;;;;2.72;1.23;;;;;;;27.51;42.75;101595.06;4927083;29;20047;-83
2023/09/03 14:20:46;;;;;;;3.20;1.15;;;;;;;27.22;42.74;101583.22;4915965;29;20024;-83
2023/09/03 14:23:11;;;;;;;4.38;1.33;;;;;;;27.00;43.27;101583.91;4933863;29;20076;-84
2023/09/03 14:25:36;;;;;;;1.30;0.90;;;;;;;26.94;43.22;101584.56;4934860;29;20071;-82
2023/09/03 14:28:02;;;;;;;2.85;1.25;;;;;;;27.00;46.07;101575.97;4929083;29;20028;-82
2023/09/03 14:30:27;;;;;;;1.33;1.08;;;;;;;26.63;46.60;101574.69;4915503;29;20032;-83
2023/09/03 14:32:52;;;;;;;1.73;1.10;;;;;;;26.98;47.45;101585.91;4915693;29;20064;-83
2023/09/03 14:35:18;;;;;;;1.20;1.00;;;;;;;27.05;46.91;101582.41;4915575;29;20192;-83
2023/09/03 14:38:05;;;;;;;1.42;0.95;;;;;;;26.83;47.95;101580.47;4932562;29;20437;-84
2023/09/03 14:40:31;;;;;;;5.00;1.48;;;;;;;27.25;45.93;101576.75;4928846;29;20031;-87
2023/09/03 14:42:56;;;;;;;1.30;1.08;;;;;;;27.51;45.17;101580.00;4934453;29;20027;-90
2023/09/03 14:45:21;;;;;;;1.00;0.82;;;;;;;27.21;44.14;101576.25;4934410;29;20030;-84
2023/09/03 14:47:47;;;;;;;1.00;0.90;;;;;;;27.34;43.24;101573.09;4934099;29;20039;-85
2023/09/03 14:50:12;;;;;;;4.53;1.10;;;;;;;27.07;44.55;101574.31;4934112;29;20039;-83
2023/09/03 14:52:38;;;;;;;2.13;1.20;;;;;;;27.07;44.03;101566.34;4932933;29;20486;-84
2023/09/03 14:55:06;;;;;;;2.88;1.65;;;;;;;27.05;44.95;101573.63;4935657;29;20036;-82
2023/09/03 14:57:32;;;;;;;2.10;0.90;;;;;;;27.15;45.45;101576.91;4934195;29;20059;-87
2023/09/03 14:59:58;;;;;;;1.98;1.20;;;;;;;26.53;44.32;101574.84;4934286;29;20398;-89
2023/09/03 15:02:23;;;;;;;0.98;0.80;;;;;;;26.59;45.24;101573.34;4923574;29;20042;-83
2023/09/03 15:04:48;;;;;;;1.10;0.80;;;;;;;26.58;45.08;101576.97;4916565;29;20043;-83
2023/09/03 15:07:14;;;;;;;1.50;1.20;;;;;;;26.71;45.30;101576.50;4928453;29;20048;-88
2023/09/03 15:09:39;;;;;;;1.67;1.08;;;;;;;26.73;44.71;101571.84;4935779;29;20031;-89
2023/09/03 15:12:04;;;;;;;2.90;1.30;;;;;;;26.93;46.56;101564.38;4921463;29;20115;-83
2023/09/03 15:14:30;;;;;;;2.17;1.20;;;;;;;27.02;46.57;101561.56;4927998;29;20363;-83
2023/09/03 15:16:55;;;;;;;1.88;0.90;;;;;;;27.00;45.42;101554.78;4935310;29;20107;-83
2023/09/03 15:19:21;;;;;;;1.95;1.10;;;;;;;26.87;45.52;101550.81;4933654;29;20064;-83
2023/09/03 15:21:47;;;;;;;1.88;0.90;;;;;;;26.95;45.27;101549.97;4915573;29;20028;-83
2023/09/03 15:24:12;;;;;;;1.23;1.00;;;;;;;26.95;44.72;101547.31;4918344;29;20040;-84
2023/09/03 15:26:37;;;;;;;1.63;1.00;;;;;;;26.93;44.72;101544.00;4934017;29;20106;-84
2023/09/03 15:29:03;;;;;;;1.60;1.13;;;;;;;26.78;45.20;101549.16;4935238;29;20028;-84
2023/09/03 15:31:28;;;;;;;3.65;0.90;;;;;;;26.46;46.39;101539.41;4924654;29;20036;-86
2023/09/03 15:33:54;;;;;;;5.70;1.20;;;;;;;26.38;46.06;101534.09;4916247;29;20024;-88
2023/09/03 15:36:19;;;;;;;4.30;1.23;;;;;;;26.58;46.50;101534.59;4920121;29;20490;-82
2023/09/03 15:38:44;;;;;;;2.40;1.10;;;;;;;26.46;47.10;101529.63;4934315;29;20028;-80
2023/09/03 15:41:10;;;;;;;2.15;1.23;;;;;;;26.65;47.58;101535.59;4922762;29;20095;-80
2023/09/03 15:43:35;;;;;;;1.83;1.13;;;;;;;26.44;48.42;101528.97;4915888;29;20023;-80
2023/09/03 15:46:00;;;;;;;2.67;1.42;;;;;;;26.37;50.04;101538.56;4921922;29;20043;-82
2023/09/03 15:48:26;;;;;;;6.18;1.35;;;;;;;26.45;51.39;101541.19;4934251;29;20035;-83
2023/09/03 15:50:54;;;;;;;2.45;1.33;;;;;;;26.42;50.40;101530.94;4933438;29;20118;-81
2023/09/03 15:53:20;;;;;;;1.23;1.00;;;;;;;26.40;49.19;101537.41;4934630;29;20059;-83
2023/09/03 15:55:45;;;;;;;1.90;1.30;;;;;;;26.24;50.17;101530.31;4932680;29;20056;-88
2023/09/03 15:58:10;;;;;;;1.70;1.30;;;;;;;26.31;50.40;101528.63;4933599;29;20118;-85
2023/09/03 16:00:38;;;;;;;2.33;1.10;;;;;;;26.23;49.44;101520.69;4934635;29;20024;-86
2023/09/03 16:03:04;;;;;;;1.17;0.95;;;;;;;26.12;48.32;101526.31;4934493;29;20031;-86
2023/09/03 16:05:29;;;;;;;1.77;1.20;;;;;;;26.09;48.27;101524.78;4933961;29;20134;-88
2023/09/03 16:07:55;;;;;;;3.25;1.20;;;;;;;25.83;48.69;101516.97;4934583;29;20031;-87
2023/09/03 16:10:21;;;;;;;2.22;1.23;;;;;;;25.81;49.36;101511.00;4934519;29;20023;-87
2023/09/03 16:12:46;;;;;;;1.10;1.00;;;;;;;25.80;52.07;101514.63;4920695;29;20032;-86
2023/09/03 16:15:12;;;;;;;1.77;1.15;;;;;;;25.87;53.05;101510.38;4915441;29;20028;-86
2023/09/03 16:17:37;;;;;;;1.90;1.33;;;;;;;25.82;51.19;101497.63;4929999;29;20397;-88
2023/09/03 16:20:04;;;;;;;1.75;1.30;;;;;;;25.59;52.23;101493.94;4934375;29;20110;-91
2023/09/03 16:22:29;;;;;;;3.60;2.28;;;;;;;25.49;51.59;101496.72;4937124;29;20079;-88
2023/09/03 16:24:55;;;;;;;2.47;1.10;;;;;;;25.48;51.81;101494.22;4934457;29;20502;-90
2023/09/03 16:27:21;;;;;;;2.72;1.50;;;;;;;25.54;52.55;101493.59;4934597;29;20031;-88
2023/09/03 16:29:48;;;;;;;3.75;1.85;;;;;;;25.59;53.53;101493.94;4934469;29;20529;-88
2023/09/03 16:32:15;;;;;;;3.63;1.80;;;;;;;25.51;53.42;101500.03;4934348;29;20375;-92
2023/09/03 16:34:40;;;;;;;3.15;1.80;;;;;;;25.40;53.24;101487.09;4935644;29;20031;-86
2023/09/03 16:37:06;;;;;;;3.55;1.98;;;;;;;25.24;53.53;101479.09;4931150;29;20036;-88
2023/09/03 16:39:33;;;;;;;4.88;1.80;;;;;;;25.24;54.74;101476.44;4915126;29;20115;-88
2023/09/03 16:41:58;;;;;;;3.38;2.30;;;;;;;25.12;54.51;101479.34;4926650;29;20027;-89
2023/09/03 16:44:24;;;;;;;5.82;2.45;;;;;;;25.12;54.34;101468.78;4934121;29;20043;-92
2023/09/03 16:46:49;;;;;;;2.17;1.75;;;;;;;24.98;56.10;101474.66;4934076;29;20028;-89
2023/09/03 16:49:14;;;;;;;3.80;2.10;;;;;;;25.04;54.91;101476.66;4933770;29;20028;-88
2023/09/03 16:51:42;;;;;;;3.55;2.40;;;;;;;25.11;56.25;101477.69;4932607;29;20032;-90
2023/09/03 16:54:08;;;;;;;2.03;1.83;;;;;;;25.13;55.16;101472.25;4933907;29;20023;-90
2023/09/03 16:56:33;;;;;;;2.58;2.20;;;;;;;25.18;55.84;101470.81;4932666;29;20497;-89
2023/09/03 16:58:59;;;;;;;5.68;2.22;;;;;;;25.15;55.20;101479.03;4924916;29;20067;-89
2023/09/03 17:01:25;;;;;;;3.10;2.28;;;;;;;25.00;54.54;101475.34;4915989;29;20036;-93
2023/09/03 17:03:53;;;;;;;3.08;1.90;;;;;;;24.84;55.23;101465.50;4921080;29;20028;-91
2023/09/03 17:06:18;;;;;;;2.97;2.05;;;;;;;24.86;56.68;101465.34;4922858;29;20032;-86
2023/09/03 17:08:44;;;;;;;5.40;2.22;;;;;;;24.91;55.50;101458.59;4941992;29;20478;-86
2023/09/03 17:11:09;;;;;;;3.15;2.35;;;;;;;24.88;57.25;101460.75;4945870;29;20466;-87
2023/09/03 17:13:34;;;;;;;4.97;2.22;;;;;;;24.87;57.25;101464.34;4939715;29;20062;-85
2023/09/03 17:16:00;;;;;;;3.17;2.22;;;;;;;24.83;56.72;101461.22;4935698;29;20503;-89
2023/09/03 17:18:25;;;;;;;3.85;1.88;;;;;;;24.74;56.78;101464.78;4936934;29;20047;-87
2023/09/03 17:20:50;;;;;;;3.65;2.30;;;;;;;24.76;56.33;101453.09;4935348;29;20031;-86
2023/09/03 17:23:16;;;;;;;3.58;2.15;;;;;;;24.64;57.15;101449.06;4937454;29;20378;-86
2023/09/03 17:25:41;;;;;;;2.60;1.80;;;;;;;24.68;57.65;101454.88;4936862;29;20023;-85
2023/09/03 17:28:07;;;;;;;3.88;2.15;;;;;;;24.47;58.20;101447.28;4937290;29;20127;-87
2023/09/03 17:30:32;;;;;;;5.50;2.13;;;;;;;24.49;57.75;101440.06;4922173;29;20462;-87
2023/09/03 17:32:57;;;;;;;3.53;2.15;;;;;;;24.47;56.89;101447.28;4918324;29;20490;-88
2023/09/03 17:35:23;;;;;;;2.67;1.92;;;;;;;24.39;55.94;101445.41;4924576;29;20386;-87
2023/09/03 17:37:48;;;;;;;5.13;2.70;;;;;;;24.21;56.46;101442.78;4937504;29;20063;-89
2023/09/03 17:40:17;;;;;;;4.75;2.17;;;;;;;24.23;56.96;101446.09;4937310;29;20398;-89
2023/09/03 17:42:43;;;;;;;4.43;2.72;;;;;;;24.21;56.82;101439.31;4936878;29;20127;-87
2023/09/03 17:45:08;;;;;;;5.65;2.67;;;;;;;24.22;56.08;101436.53;4935337;29;20120;-87
2023/09/03 17:47:34;;;;;;;5.53;2.25;;;;;;;24.15;57.56;101432.84;4933992;29;20039;-96
2023/09/03 17:49:59;;;;;;;4.63;2.75;;;;;;;24.04;57.57;101435.72;4929507;29;20074;-96
2023/09/03 17:52:24;;;;;;;4.00;3.00;;;;;;;23.94;57.81;101435.78;4945833;29;20035;-96
2023/09/03 17:54:50;;;;;;;11.85;2.60;;;;;;;23.90;58.53;101429.19;4936987;29;20064;-96
2023/09/03 17:57:16;;;;;;;2.70;1.90;;;;;;;23.84;58.38;101432.41;4931967;29;20035;-96
2023/09/03 17:59:43;;;;;;;2.15;1.25;;;;;;;23.89;57.68;101430.16;4928600;29;20076;-96
2023/09/03 18:02:09;;;;;;;4.43;2.20;;;;;;;23.75;57.98;101428.88;4938510;29;20028;-95
2023/09/03 18:04:34;;;;;;;2.65;1.95;;;;;;;23.65;58.79;101423.66;4916742;29;20475;-95
2023/09/03 18:07:00;;;;;;;5.22;1.85;;;;;;;23.69;57.98;101421.53;4927060;29;20496;-93
2023/09/03 18:09:25;;;;;;;3.35;1.55;;;;;;;23.57;59.15;101431.44;4936315;29;20040;-93
2023/09/03 18:11:51;;;;;;;2.97;1.45;;;;;;;23.48;59.48;101425.28;4935785;29;20110;-94
2023/09/03 18:14:17;;;;;;;2.53;1.75;;;;;;;23.44;58.86;101423.91;4936991;29;20090;-94
2023/09/03 18:16:43;;;;;;;2.22;1.55;;;;;;;23.16;59.18;101422.25;4937142;29;20039;-94
2023/09/03 18:22:14;;;;;;;;;;;;;;;23.13;60.15;101430.47;5942030;23;20026;-96
2023/09/03 18:50:18;;;;;;;2.78;1.38;;;;;;;22.07;65.55;101454.19;5896043;23;20050;-96
2023/09/03 18:52:44;;;;;;;2.97;1.38;;;;;;;21.97;65.17;101441.03;4967416;28;20015;-96
2023/09/03 18:55:09;;;;;;;1.80;1.50;;;;;;;21.88;65.48;101446.28;4993552;23;20049;-96
2023/09/03 18:57:35;;;;;;;2.83;1.85;;;;;;;21.82;66.30;101449.47;4988151;28;20031;-96
2023/09/03 19:02:36;;;;;;;1.92;1.58;;;;;;;21.75;67.69;101452.66;5075988;23;20062;-95
2023/09/03 19:05:01;;;;;;;3.53;1.67;;;;;;;21.72;66.18;101442.38;4983249;28;20007;-96
2023/09/03 19:07:29;;;;;;;2.22;1.40;;;;;;;21.71;66.96;101453.88;4967576;29;20074;-96
2023/09/03 19:09:55;;;;;;;2.83;1.92;;;;;;;21.61;66.17;101446.97;4963589;29;20099;-96
2023/09/03 19:33:00;;;;;;;3.00;2.00;;;;;;;20.98;71.09;101457.63;4958354;29;20043;-96
2023/09/03 19:35:27;;;;;;;1.98;1.58;;;;;;;20.91;71.84;101450.25;4959254;29;20031;-96
2023/09/03 19:37:53;;;;;;;3.53;1.80;;;;;;;20.95;72.96;101449.03;5031325;23;20121;-96
2023/09/03 19:40:19;;;;;;;3.28;1.80;;;;;;;21.00;71.22;101447.84;5321888;23;20058;-96
2023/09/03 19:42:44;;;;;;;3.03;1.50;;;;;;;20.94;72.26;101455.25;4954312;28;20047;-96
2023/09/03 19:45:20;;;;;;;2.75;1.73;;;;;;;20.93;72.61;101448.34;4944228;29;20075;-96
2023/09/03 19:47:51;;;;;;;5.40;1.95;;;;;;;20.89;72.57;101462.69;4972922;28;20039;-96